createdAt,value
2023-04-18T00:01:10.908Z,52.59
2023-04-18T00:03:38.943Z,52.19
2023-04-18T00:06:05.765Z,52.24
2023-04-18T00:08:33.549Z,52.69
2023-04-18T00:10:59.888Z,52.47
2023-04-18T00:13:28.252Z,52.62
2023-04-18T00:15:55.204Z,52.46
2023-04-18T00:18:22.035Z,52.34
2023-04-18T00:20:48.464Z,52.46
2023-04-18T00:23:15.046Z,52.51
2023-04-18T00:25:41.468Z,52.13
2023-04-18T00:28:07.875Z,52.11
2023-04-18T00:30:34.462Z,52.06
2023-04-18T00:33:01.309Z,51.81
2023-04-18T00:35:27.784Z,51.81
2023-04-18T00:37:54.170Z,51.69
2023-04-18T00:40:20.642Z,51.72
2023-04-18T00:42:46.977Z,51.67
2023-04-18T00:45:13.429Z,51.79
2023-04-18T00:47:39.879Z,51.65
2023-04-18T00:50:07.299Z,51.33
2023-04-18T00:52:35.743Z,51.58
2023-04-18T00:55:07.858Z,51.48
2023-04-18T00:57:34.906Z,51.31
2023-04-18T01:00:02.277Z,51.21
2023-04-18T01:02:32.083Z,51.16
2023-04-18T01:04:58.656Z,50.95
2023-04-18T01:07:26.486Z,51.01
2023-04-18T01:09:53.928Z,51.06
2023-04-18T01:12:20.402Z,50.95
2023-04-18T01:14:46.780Z,50.83
2023-04-18T01:17:13.451Z,50.89
2023-04-18T01:19:40.542Z,51.02
2023-04-18T01:22:07.533Z,50.91
2023-04-18T01:24:34.173Z,51.11
2023-04-18T01:27:02.771Z,50.88
2023-04-18T01:29:29.204Z,51.03
2023-04-18T01:31:55.735Z,51.08
2023-04-18T01:34:22.178Z,51.03
2023-04-18T01:36:48.807Z,51.07
2023-04-18T01:39:15.442Z,51.38
2023-04-18T01:41:42.204Z,51.19
2023-04-18T01:44:08.635Z,51.17
2023-04-18T01:46:35.945Z,51.01
2023-04-18T01:49:02.506Z,51.14
2023-04-18T01:51:28.945Z,50.94
2023-04-18T01:53:55.375Z,50.99
2023-04-18T01:56:21.829Z,51.32
2023-04-18T01:58:48.349Z,51.33
2023-04-18T02:01:14.807Z,51.29
2023-04-18T02:03:41.302Z,51.24
2023-04-18T02:06:08.005Z,51.09
2023-04-18T02:08:35.694Z,51.18
2023-04-18T02:11:02.299Z,51.09
2023-04-18T02:13:28.987Z,51.18
2023-04-18T02:15:55.321Z,51.42
2023-04-18T02:18:24.637Z,51.33
2023-04-18T02:20:51.884Z,51.40
2023-04-18T02:23:19.050Z,51.51
2023-04-18T02:25:45.665Z,51.33
2023-04-18T02:28:12.155Z,51.52
2023-04-18T02:30:38.539Z,51.48
2023-04-18T02:33:04.971Z,51.76
2023-04-18T02:35:31.745Z,51.94
2023-04-18T02:37:58.056Z,51.87
2023-04-18T02:40:24.458Z,52.13
2023-04-18T02:42:51.068Z,51.94
2023-04-18T02:45:17.768Z,52.03
2023-04-18T02:47:54.735Z,52.03
2023-04-18T02:50:23.019Z,51.87
2023-04-18T02:52:49.409Z,52.07
2023-04-18T02:55:16.079Z,52.32
2023-04-18T02:57:42.457Z,52.18
2023-04-18T03:00:09.378Z,52.31
2023-04-18T03:02:35.903Z,52.35
2023-04-18T03:05:02.726Z,52.28
2023-04-18T03:07:30.818Z,52.51
2023-04-18T03:09:57.219Z,52.51
2023-04-18T03:12:23.590Z,52.52
2023-04-18T03:14:50.099Z,52.45
2023-04-18T03:17:16.506Z,52.39
2023-04-18T03:19:43.007Z,52.52
2023-04-18T03:22:09.924Z,52.53
2023-04-18T03:24:36.252Z,52.43
2023-04-18T03:27:02.678Z,52.26
2023-04-18T03:29:29.093Z,52.50
2023-04-18T03:31:55.591Z,52.60
2023-04-18T03:34:22.172Z,52.70
2023-04-18T03:36:48.690Z,52.74
2023-04-18T03:39:15.038Z,52.57
2023-04-18T03:41:41.414Z,52.48
2023-04-18T03:44:07.854Z,52.65
2023-04-18T03:46:34.889Z,52.88
2023-04-18T03:49:01.233Z,52.65
2023-04-18T03:51:27.731Z,53.06
2023-04-18T03:53:54.148Z,53.03
2023-04-18T03:56:20.804Z,53.26
2023-04-18T03:58:47.153Z,53.03
2023-04-18T04:01:13.571Z,53.12
2023-04-18T04:03:40.283Z,53.11
2023-04-18T04:06:06.917Z,53.31
2023-04-18T04:08:34.176Z,53.08
2023-04-18T04:11:00.522Z,53.12
2023-04-18T04:13:26.858Z,53.20
2023-04-18T04:15:53.416Z,53.18
2023-04-18T04:18:20.143Z,53.20
2023-04-18T04:20:46.994Z,53.33
2023-04-18T04:23:13.466Z,53.38
2023-04-18T04:25:39.935Z,53.37
2023-04-18T04:28:06.628Z,53.48
2023-04-18T04:30:33.631Z,53.67
2023-04-18T04:33:01.579Z,53.57
2023-04-18T04:35:28.294Z,53.67
2023-04-18T04:37:54.679Z,54.18
2023-04-18T04:40:22.883Z,54.13
2023-04-18T04:42:53.855Z,54.18
2023-04-18T04:45:20.474Z,54.24
2023-04-18T04:47:47.520Z,54.47
2023-04-18T04:50:15.666Z,54.37
2023-04-18T04:52:42.590Z,54.31
2023-04-18T04:55:09.103Z,54.68
2023-04-18T04:57:35.916Z,54.88
2023-04-18T05:00:02.287Z,55.04
2023-04-18T05:02:28.780Z,55.33
2023-04-18T05:04:55.355Z,55.36
2023-04-18T05:07:21.850Z,55.33
2023-04-18T05:09:48.178Z,55.55
2023-04-18T05:12:14.669Z,55.83
2023-04-18T05:14:40.998Z,55.74
2023-04-18T05:17:07.723Z,56.04
2023-04-18T05:19:34.137Z,56.11
2023-04-18T05:22:00.510Z,56.25
2023-04-18T05:24:26.844Z,56.01
2023-04-18T05:26:53.602Z,56.38
2023-04-18T05:29:20.276Z,56.38
2023-04-18T05:31:46.644Z,56.62
2023-04-18T05:34:13.203Z,56.68
2023-04-18T05:36:39.840Z,56.80
2023-04-18T05:39:06.180Z,56.75
2023-04-18T05:41:32.622Z,57.14
2023-04-18T05:44:05.456Z,57.34
2023-04-18T05:46:43.463Z,57.34
2023-04-18T05:49:09.906Z,57.60
2023-04-18T05:51:36.284Z,57.73
2023-04-18T05:54:02.828Z,57.79
2023-04-18T05:56:29.271Z,57.75
2023-04-18T05:58:55.794Z,57.74
2023-04-18T06:01:22.982Z,58.09
2023-04-18T06:03:49.430Z,58.21
2023-04-18T06:06:16.087Z,58.28
2023-04-18T06:08:42.554Z,58.38
2023-04-18T06:11:09.023Z,58.48
2023-04-18T06:13:36.076Z,58.69
2023-04-18T06:16:03.229Z,58.45
2023-04-18T06:18:29.563Z,58.49
2023-04-18T06:20:55.915Z,58.65
2023-04-18T06:23:22.421Z,58.74
2023-04-18T06:25:48.804Z,59.00
2023-04-18T06:28:15.142Z,59.08
2023-04-18T06:30:41.610Z,58.92
2023-04-18T06:33:10.458Z,59.05
2023-04-18T06:35:37.365Z,59.21
2023-04-18T06:38:04.288Z,59.20
2023-04-18T06:40:30.682Z,59.02
2023-04-18T06:42:57.034Z,59.39
2023-04-18T06:45:23.443Z,59.07
2023-04-18T06:47:51.255Z,59.10
2023-04-18T06:50:17.640Z,59.28
2023-04-18T06:52:46.717Z,59.46
2023-04-18T06:55:13.994Z,59.27
2023-04-18T06:57:41.766Z,59.63
2023-04-18T07:00:10.025Z,59.36
2023-04-18T07:02:38.756Z,59.38
2023-04-18T07:05:06.233Z,59.65
2023-04-18T07:07:34.980Z,59.72
2023-04-18T07:10:01.558Z,59.55
2023-04-18T07:12:27.898Z,59.34
2023-04-18T07:14:54.758Z,59.60
2023-04-18T07:17:21.179Z,59.98
2023-04-18T07:19:47.711Z,59.70
2023-04-18T07:22:14.108Z,59.64
2023-04-18T07:24:40.497Z,60.05
2023-04-18T07:27:06.991Z,59.63
2023-04-18T07:29:33.311Z,59.67
2023-04-18T07:31:59.637Z,59.81
2023-04-18T07:34:29.698Z,59.26
2023-04-18T07:36:58.859Z,59.17
2023-04-18T07:39:25.341Z,58.58
2023-04-18T07:41:51.746Z,58.76
2023-04-18T07:44:18.482Z,58.72
2023-04-18T07:46:44.973Z,58.31
2023-04-18T07:49:11.657Z,58.56
2023-04-18T07:51:38.143Z,58.33
2023-04-18T07:54:04.660Z,58.64
2023-04-18T07:56:30.997Z,58.39
2023-04-18T07:58:57.316Z,58.56
2023-04-18T08:01:24.793Z,58.34
2023-04-18T08:03:53.157Z,58.29
2023-04-18T08:06:19.720Z,57.96
2023-04-18T08:08:46.444Z,57.71
2023-04-18T08:11:12.916Z,57.56
2023-04-18T08:13:39.370Z,57.14
2023-04-18T08:16:06.237Z,57.08
2023-04-18T08:18:32.579Z,57.01
2023-04-18T08:20:58.949Z,56.95
2023-04-18T08:23:25.363Z,57.21
2023-04-18T08:25:51.706Z,57.25
2023-04-18T08:28:18.371Z,57.36
2023-04-18T08:30:48.658Z,57.45
2023-04-18T08:33:16.109Z,57.45
2023-04-18T08:35:43.029Z,56.90
2023-04-18T08:38:09.646Z,57.05
2023-04-18T08:40:37.180Z,56.94
2023-04-18T08:43:09.203Z,56.86
2023-04-18T08:45:36.734Z,56.52
2023-04-18T08:48:03.778Z,55.99
2023-04-18T08:50:30.675Z,55.69
2023-04-18T08:52:59.412Z,55.62
2023-04-18T08:55:25.758Z,55.36
2023-04-18T08:57:55.057Z,55.42
2023-04-18T09:00:22.641Z,55.09
2023-04-18T09:02:49.437Z,55.08
2023-04-18T09:05:19.994Z,54.91
2023-04-18T09:07:47.736Z,54.83
2023-04-18T09:10:26.338Z,54.73
2023-04-18T09:12:52.698Z,54.82
2023-04-18T09:15:23.562Z,54.73
2023-04-18T09:17:54.459Z,54.54
2023-04-18T09:20:35.798Z,54.62
2023-04-18T09:23:04.215Z,54.66
2023-04-18T09:25:40.793Z,54.32
2023-04-18T09:28:32.972Z,54.34
2023-04-18T09:31:17.359Z,54.60
2023-04-18T09:33:56.650Z,54.22
2023-04-18T09:36:26.968Z,53.90
2023-04-18T09:38:56.225Z,53.96
2023-04-18T09:41:23.670Z,53.87
2023-04-18T09:43:50.331Z,53.84
2023-04-18T09:46:17.772Z,54.02
2023-04-18T09:48:44.268Z,53.96
2023-04-18T09:51:13.915Z,53.81
2023-04-18T09:53:44.863Z,53.71
2023-04-18T09:56:27.460Z,53.58
2023-04-18T09:59:07.086Z,53.21
2023-04-18T10:01:33.819Z,53.20
2023-04-18T10:04:02.127Z,53.33
2023-04-18T10:06:28.912Z,52.92
2023-04-18T10:08:56.000Z,52.75
2023-04-18T10:11:24.016Z,52.86
2023-04-18T10:13:56.219Z,52.98
2023-04-18T10:16:23.234Z,52.71
2023-04-18T10:18:51.023Z,52.46
2023-04-18T10:21:17.564Z,52.38
2023-04-18T10:23:45.776Z,52.51
2023-04-18T10:26:12.324Z,52.11
2023-04-18T10:28:58.155Z,51.87
2023-04-18T10:31:27.406Z,51.72
2023-04-18T10:34:05.301Z,51.30
2023-04-18T10:36:32.378Z,51.06
2023-04-18T10:39:19.310Z,51.03
2023-04-18T10:41:50.927Z,51.09
2023-04-18T10:44:21.747Z,50.58
2023-04-18T10:46:48.050Z,50.33
2023-04-18T10:49:23.897Z,50.37
2023-04-18T10:51:53.690Z,50.03
2023-04-18T10:54:28.553Z,50.55
2023-04-18T10:56:56.673Z,49.94
2023-04-18T10:59:25.023Z,49.79
2023-04-18T11:01:57.273Z,49.46
2023-04-18T11:04:25.587Z,48.55
2023-04-18T11:06:57.399Z,48.19
2023-04-18T11:09:24.456Z,48.17
2023-04-18T11:12:08.280Z,48.59
2023-04-18T11:14:49.952Z,48.74
2023-04-18T11:17:21.942Z,49.18
2023-04-18T11:19:48.466Z,48.67
2023-04-18T11:22:16.268Z,48.51
2023-04-18T11:24:42.783Z,48.11
2023-04-18T11:27:10.895Z,48.23
2023-04-18T11:29:38.157Z,47.94
2023-04-18T11:32:09.296Z,47.99
2023-04-18T11:34:35.924Z,48.28
2023-04-18T11:37:07.546Z,48.92
2023-04-18T11:39:36.257Z,48.24
2023-04-18T11:42:02.653Z,48.05
2023-04-18T11:44:29.050Z,48.12
2023-04-18T11:46:55.458Z,47.85
2023-04-18T11:49:39.958Z,48.28
2023-04-18T11:52:12.256Z,48.56
2023-04-18T11:54:43.405Z,48.02
2023-04-18T11:57:20.377Z,48.07
2023-04-18T11:59:54.250Z,48.39
2023-04-18T12:02:22.393Z,47.50
2023-04-18T12:05:00.245Z,47.17
2023-04-18T12:07:45.742Z,46.62
2023-04-18T12:10:25.962Z,46.50
2023-04-18T12:12:54.802Z,46.66
2023-04-18T12:15:24.047Z,47.03
2023-04-18T12:17:53.400Z,47.04
2023-04-18T12:20:20.019Z,46.72
2023-04-18T12:22:51.456Z,46.15
2023-04-18T12:25:27.836Z,46.27
2023-04-18T12:28:12.774Z,46.36
2023-04-18T12:30:39.112Z,46.50
2023-04-18T12:33:05.454Z,46.89
2023-04-18T12:35:32.331Z,47.38
2023-04-18T12:38:00.374Z,47.14
2023-04-18T12:40:27.185Z,47.06
2023-04-18T12:42:54.414Z,47.11
2023-04-18T12:45:22.674Z,46.79
2023-04-18T12:47:50.822Z,46.61
2023-04-18T12:50:21.963Z,46.29
2023-04-18T12:52:48.895Z,45.88
2023-04-18T12:55:15.704Z,45.71
2023-04-18T12:57:43.080Z,45.17
2023-04-18T13:00:14.635Z,45.68
2023-04-18T13:02:43.935Z,45.19
2023-04-18T13:05:12.791Z,44.84
2023-04-18T13:07:43.033Z,44.32
2023-04-18T13:10:10.988Z,43.90
2023-04-18T13:12:37.994Z,43.83
2023-04-18T13:15:05.405Z,44.20
2023-04-18T13:17:32.652Z,44.28
2023-04-18T13:20:00.102Z,44.79
2023-04-18T13:22:28.315Z,44.25
2023-04-18T13:24:54.662Z,45.04
2023-04-18T13:27:21.079Z,44.82
2023-04-18T13:29:47.438Z,44.56
2023-04-18T13:32:13.871Z,43.79
2023-04-18T13:34:46.239Z,44.13
2023-04-18T13:37:13.889Z,44.05
2023-04-18T13:39:40.736Z,44.21
2023-04-18T13:42:08.512Z,44.19
2023-04-18T13:44:36.703Z,43.80
2023-04-18T13:47:04.953Z,44.14
2023-04-18T13:49:32.761Z,44.26
2023-04-18T13:51:59.161Z,43.88
2023-04-18T13:54:29.792Z,43.14
2023-04-18T13:56:58.228Z,43.38
2023-04-18T13:59:25.825Z,43.28
2023-04-18T14:01:53.374Z,43.13
2023-04-18T14:04:24.221Z,43.62
2023-04-18T14:06:51.237Z,43.43
2023-04-18T14:09:17.878Z,43.23
2023-04-18T14:11:45.484Z,43.17
2023-04-18T14:14:11.937Z,42.67
2023-04-18T14:16:38.335Z,42.72
2023-04-18T14:19:04.809Z,42.79
2023-04-18T14:21:31.538Z,42.64
2023-04-18T14:23:57.857Z,41.86
2023-04-18T14:26:24.410Z,41.87
2023-04-18T14:28:51.096Z,42.43
2023-04-18T14:31:17.779Z,42.64
2023-04-18T14:33:44.709Z,42.25
2023-04-18T14:36:11.228Z,42.02
2023-04-18T14:38:37.796Z,42.05
2023-04-18T14:41:05.464Z,41.97
2023-04-18T14:43:32.214Z,41.73
2023-04-18T14:45:59.690Z,41.43
2023-04-18T14:48:26.586Z,41.35
2023-04-18T14:51:00.268Z,42.18
2023-04-18T14:53:27.068Z,41.57
2023-04-18T14:55:53.515Z,41.48
2023-04-18T14:58:20.280Z,41.63
2023-04-18T15:00:46.661Z,41.33
2023-04-18T15:03:13.605Z,40.97
2023-04-18T15:05:42.932Z,40.65
2023-04-18T15:08:11.373Z,40.32
2023-04-18T15:10:38.592Z,40.23
2023-04-18T15:13:05.003Z,40.03
2023-04-18T15:15:35.360Z,40.48
2023-04-18T15:18:02.518Z,40.71
2023-04-18T15:20:29.526Z,40.81
2023-04-18T15:22:56.807Z,40.79
2023-04-18T15:25:23.483Z,40.68
2023-04-18T15:27:49.933Z,40.89
2023-04-18T15:30:16.513Z,41.24
2023-04-18T15:32:42.926Z,41.18
2023-04-18T15:35:10.191Z,41.25
2023-04-18T15:37:37.034Z,40.80
2023-04-18T15:40:06.548Z,40.85
2023-04-18T15:42:33.846Z,40.56
2023-04-18T15:45:00.356Z,40.38
2023-04-18T15:47:27.056Z,40.18
2023-04-18T15:49:53.522Z,40.21
2023-04-18T15:52:19.937Z,39.78
2023-04-18T15:54:46.379Z,40.21
2023-04-18T15:57:12.790Z,40.52
2023-04-18T15:59:39.235Z,40.69
2023-04-18T16:02:07.367Z,41.19
2023-04-18T16:04:34.076Z,41.06
2023-04-18T16:07:00.849Z,40.43
2023-04-18T16:09:27.226Z,40.08
2023-04-18T16:11:53.782Z,40.22
2023-04-18T16:14:20.104Z,40.28
2023-04-18T16:16:46.411Z,40.51
2023-04-18T16:19:12.875Z,40.65
2023-04-18T16:21:39.276Z,40.74
2023-04-18T16:24:06.037Z,40.39
2023-04-18T16:26:32.399Z,39.61
2023-04-18T16:28:58.935Z,39.15
2023-04-18T16:31:25.768Z,39.15
2023-04-18T16:33:55.140Z,38.92
2023-04-18T16:36:21.578Z,39.43
2023-04-18T16:38:48.014Z,39.92
2023-04-18T16:41:14.340Z,39.98
2023-04-18T16:43:40.776Z,39.79
2023-04-18T16:46:08.049Z,39.28
2023-04-18T16:48:37.722Z,39.32
2023-04-18T16:51:04.555Z,38.58
2023-04-18T16:53:31.020Z,38.79
2023-04-18T16:55:57.533Z,39.05
2023-04-18T16:58:23.916Z,39.00
2023-04-18T17:00:50.450Z,38.44
2023-04-18T17:03:17.197Z,38.26
2023-04-18T17:05:44.450Z,37.48
2023-04-18T17:08:10.927Z,38.19
2023-04-18T17:10:37.504Z,37.89
2023-04-18T17:13:04.011Z,37.79
2023-04-18T17:15:30.832Z,37.64
2023-04-18T17:18:00.004Z,37.50
2023-04-18T17:20:27.932Z,37.62
2023-04-18T17:22:54.767Z,37.47
2023-04-18T17:25:21.520Z,37.78
2023-04-18T17:27:47.954Z,37.55
2023-04-18T17:30:14.593Z,37.47
2023-04-18T17:32:45.595Z,37.65
2023-04-18T17:35:14.522Z,37.97
2023-04-18T17:37:42.351Z,38.00
2023-04-18T17:40:10.101Z,38.00
2023-04-18T17:42:39.033Z,38.10
2023-04-18T17:45:09.595Z,38.37
2023-04-18T17:47:36.614Z,37.86
2023-04-18T17:50:06.974Z,38.02
2023-04-18T17:52:33.610Z,37.38
2023-04-18T17:55:01.498Z,37.54
2023-04-18T17:57:30.277Z,37.58
2023-04-18T17:59:56.692Z,37.52
2023-04-18T18:02:28.070Z,37.79
2023-04-18T18:04:55.003Z,37.86
2023-04-18T18:07:21.429Z,38.05
2023-04-18T18:09:47.782Z,38.23
2023-04-18T18:12:14.395Z,38.46
2023-04-18T18:14:40.750Z,38.78
2023-04-18T18:17:07.399Z,39.12
2023-04-18T18:19:36.688Z,39.29
2023-04-18T18:22:03.236Z,39.68
2023-04-18T18:24:29.741Z,39.90
2023-04-18T18:26:56.796Z,40.03
2023-04-18T18:29:23.255Z,40.38
2023-04-18T18:31:49.934Z,41.00
2023-04-18T18:34:16.902Z,40.91
2023-04-18T18:36:43.303Z,41.04
2023-04-18T18:39:11.065Z,41.45
2023-04-18T18:41:37.563Z,41.47
2023-04-18T18:44:04.013Z,41.50
2023-04-18T18:46:31.081Z,42.03
2023-04-18T18:48:57.487Z,42.16
2023-04-18T18:51:23.906Z,42.40
2023-04-18T18:53:50.652Z,42.65
2023-04-18T18:56:17.083Z,42.79
2023-04-18T18:58:43.726Z,43.02
2023-04-18T19:01:11.488Z,43.10
2023-04-18T19:03:38.108Z,43.12
2023-04-18T19:06:06.912Z,43.44
2023-04-18T19:08:33.817Z,43.81
2023-04-18T19:11:00.238Z,43.89
2023-04-18T19:13:26.617Z,44.01
2023-04-18T19:15:53.183Z,44.35
2023-04-18T19:18:20.248Z,44.42
2023-04-18T19:20:47.084Z,44.54
2023-04-18T19:23:13.697Z,44.73
2023-04-18T19:25:40.136Z,44.87
2023-04-18T19:28:06.570Z,44.90
2023-04-18T19:30:33.018Z,45.16
2023-04-18T19:32:59.655Z,45.08
2023-04-18T19:35:26.161Z,45.26
2023-04-18T19:37:55.816Z,45.40
2023-04-18T19:40:23.689Z,45.46
2023-04-18T19:42:50.104Z,45.53
2023-04-18T19:45:16.516Z,45.87
2023-04-18T19:47:44.330Z,46.03
2023-04-18T19:50:11.447Z,46.14
2023-04-18T19:52:38.027Z,46.44
2023-04-18T19:55:05.213Z,46.39
2023-04-18T19:57:31.840Z,46.57
2023-04-18T19:59:58.389Z,46.72
2023-04-18T20:02:24.859Z,46.71
2023-04-18T20:04:51.482Z,46.82
2023-04-18T20:07:18.088Z,46.76
2023-04-18T20:09:44.442Z,47.21
2023-04-18T20:12:10.847Z,47.32
2023-04-18T20:14:37.217Z,47.40
2023-04-18T20:17:03.648Z,47.80
2023-04-18T20:19:30.061Z,47.77
2023-04-18T20:21:56.408Z,47.97
2023-04-18T20:24:23.682Z,48.21
2023-04-18T20:26:51.274Z,48.27
2023-04-18T20:29:17.719Z,48.47
2023-04-18T20:31:44.201Z,48.54
2023-04-18T20:34:10.913Z,48.53
2023-04-18T20:36:41.452Z,48.67
2023-04-18T20:39:08.886Z,48.78
2023-04-18T20:41:36.781Z,48.58
2023-04-18T20:44:05.240Z,48.99
2023-04-18T20:46:32.491Z,49.01
2023-04-18T20:48:59.014Z,49.16
2023-04-18T20:51:26.794Z,49.19
2023-04-18T20:53:53.377Z,49.19
2023-04-18T20:56:20.067Z,49.28
2023-04-18T20:58:46.495Z,49.40
2023-04-18T21:01:13.174Z,49.45
2023-04-18T21:03:39.705Z,49.52
2023-04-18T21:06:06.167Z,49.62
2023-04-18T21:08:35.048Z,49.80
2023-04-18T21:11:01.561Z,49.91
2023-04-18T21:13:27.950Z,49.92
2023-04-18T21:15:57.032Z,49.96
2023-04-18T21:18:23.858Z,50.15
2023-04-18T21:20:50.485Z,50.18
2023-04-18T21:23:16.928Z,50.21
2023-04-18T21:25:43.351Z,50.44
2023-04-18T21:28:09.790Z,50.46
2023-04-18T21:30:36.325Z,50.60
2023-04-18T21:33:03.319Z,50.50
2023-04-18T21:35:30.184Z,50.46
2023-04-18T21:37:56.866Z,50.50
2023-04-18T21:40:24.205Z,50.70
2023-04-18T21:42:53.304Z,50.72
2023-04-18T21:45:19.741Z,50.66
2023-04-18T21:47:46.729Z,50.63
2023-04-18T21:50:13.160Z,50.67
2023-04-18T21:52:39.676Z,50.83
2023-04-18T21:55:06.274Z,50.91
2023-04-18T21:57:32.603Z,50.91
2023-04-18T21:59:58.987Z,51.11
2023-04-18T22:02:26.818Z,50.96
2023-04-18T22:04:53.344Z,51.03
2023-04-18T22:07:20.309Z,51.06
2023-04-18T22:09:46.946Z,51.06
2023-04-18T22:12:14.306Z,51.05
2023-04-18T22:14:41.874Z,51.07
2023-04-18T22:17:09.195Z,51.31
2023-04-18T22:19:35.639Z,51.21
2023-04-18T22:22:02.106Z,51.39
2023-04-18T22:24:28.561Z,51.55
2023-04-18T22:26:54.955Z,51.33
2023-04-18T22:29:21.379Z,51.39
2023-04-18T22:31:47.752Z,51.33
2023-04-18T22:34:14.436Z,51.22
2023-04-18T22:36:42.569Z,51.29
2023-04-18T22:39:09.074Z,51.31
2023-04-18T22:41:35.725Z,51.38
2023-04-18T22:44:02.181Z,51.42
2023-04-18T22:46:28.758Z,51.57
2023-04-18T22:48:55.255Z,51.53
2023-04-18T22:51:23.291Z,51.53
2023-04-18T22:53:49.823Z,51.40
2023-04-18T22:56:16.268Z,51.58
2023-04-18T22:58:42.658Z,51.39
2023-04-18T23:01:09.089Z,51.32
2023-04-18T23:03:35.817Z,51.45
2023-04-18T23:06:02.431Z,51.38
2023-04-18T23:08:28.966Z,51.36
2023-04-18T23:10:55.421Z,51.71
2023-04-18T23:13:21.803Z,51.35
2023-04-18T23:15:48.243Z,51.40
2023-04-18T23:18:15.024Z,51.28
2023-04-18T23:20:41.347Z,51.40
2023-04-18T23:23:07.678Z,51.37
2023-04-18T23:25:34.297Z,51.25
2023-04-18T23:28:00.748Z,51.37
2023-04-18T23:30:27.182Z,51.24
2023-04-18T23:32:53.922Z,51.18
2023-04-18T23:35:20.355Z,51.12
2023-04-18T23:37:46.790Z,51.18
2023-04-18T23:40:13.319Z,51.24
2023-04-18T23:42:39.671Z,51.17
2023-04-18T23:45:06.480Z,51.22
2023-04-18T23:47:33.075Z,51.25
2023-04-18T23:49:59.565Z,51.27
2023-04-18T23:52:26.017Z,51.34
2023-04-18T23:54:52.544Z,51.47
2023-04-18T23:57:18.892Z,51.45
2023-04-18T23:59:45.422Z,51.49
